| Servicio Meteorologico Nacional.

Pronóstico antártico

Pronóstico antártico

TAF Marambio
 

FTAA SAWB 281100
TAF SAWB 281100Z 2812/2912 25025G35KT 5000 BR BKN005 BKN060
TX00/2816Z TNM05/2909Z
TEMPO 2815/2818 23020G30KT 8000 BR SCT012 BKN060
BECMG 2821/2823 18015KT 9999 BKN010 BKN060
BECMG 2903/2906 16005KT 2000 BR BKN006 OVC010
PROB40 2908/2911 09010KT 0200 FZFG OVC001=